Time;durP1;ratioP1;P1;durP2;ratioP2;P2;SDS_P1;SDS_P2;PMS_P1;PMS_P2;Temp;Humidity;BMP_temperature;BMP_pressure;BME280_temperature;BME280_humidity;BME280_pressure;Samples;Min_cycle;Max_cycle;Signal;HPM_P1;HPM_P2
2022/12/03 00:01:06;;;;;;;26.08;12.65;;;;;;;5.28;46.58;102654.66;7393429;19;20506;-59
2022/12/03 00:03:34;;;;;;;25.40;13.55;;;;;;;5.36;46.41;102656.91;7392141;19;20467;-59
2022/12/03 00:06:00;;;;;;;27.40;13.63;;;;;;;5.39;46.09;102661.81;7393590;19;20002;-58
2022/12/03 00:08:26;;;;;;;23.75;12.68;;;;;;;5.45;45.74;102655.31;7393293;19;20463;-58
2022/12/03 00:10:51;;;;;;;26.05;12.73;;;;;;;5.41;45.90;102659.66;7392284;19;20403;-58
2022/12/03 00:13:17;;;;;;;23.40;12.20;;;;;;;5.34;46.09;102653.63;7394481;19;20005;-59
2022/12/03 00:15:43;;;;;;;25.98;13.48;;;;;;;5.40;45.83;102652.59;7392907;19;20002;-59
2022/12/03 00:18:08;;;;;;;25.33;13.07;;;;;;;5.40;45.70;102649.88;7394685;19;20528;-58
2022/12/03 00:20:34;;;;;;;26.42;13.73;;;;;;;5.19;45.92;102652.41;7392337;19;20006;-59
2022/12/03 00:23:00;;;;;;;25.80;13.48;;;;;;;5.31;45.82;102648.72;7394125;19;20491;-59
2022/12/03 00:25:25;;;;;;;24.77;12.85;;;;;;;5.32;45.69;102647.66;7392485;19;20006;-60
2022/12/03 00:27:51;;;;;;;25.10;13.40;;;;;;;5.36;45.52;102646.06;7393277;19;20443;-60
2022/12/03 00:30:17;;;;;;;24.20;12.57;;;;;;;5.37;45.60;102648.53;7393350;19;20339;-58
2022/12/03 00:32:43;;;;;;;25.85;13.13;;;;;;;5.42;45.18;102647.72;7392821;19;20102;-59
2022/12/03 00:35:09;;;;;;;25.50;12.93;;;;;;;5.40;45.12;102641.75;7391810;19;20005;-59
2022/12/03 00:37:35;;;;;;;24.10;12.80;;;;;;;5.33;45.41;102650.09;7392821;19;20006;-59
2022/12/03 00:40:02;;;;;;;24.92;13.82;;;;;;;5.29;45.61;102650.84;7393054;19;19995;-59
2022/12/03 00:42:28;;;;;;;24.65;12.73;;;;;;;5.34;45.42;102649.03;7392963;19;20003;-59
2022/12/03 00:44:53;;;;;;;27.00;13.40;;;;;;;5.35;45.13;102653.38;7392561;19;20012;-59
2022/12/03 00:47:19;;;;;;;27.45;13.35;;;;;;;5.40;45.16;102649.88;7392141;19;20002;-59
2022/12/03 00:49:45;;;;;;;26.35;13.27;;;;;;;5.45;45.17;102649.91;7393290;19;20026;-60
2022/12/03 00:52:11;;;;;;;28.67;13.32;;;;;;;5.30;45.26;102653.28;7390775;19;20058;-58
2022/12/03 00:54:36;;;;;;;25.65;13.57;;;;;;;5.24;45.26;102656.22;7392872;19;20375;-59
2022/12/03 00:57:02;;;;;;;22.95;13.30;;;;;;;5.30;45.21;102647.06;7391544;19;20038;-58
2022/12/03 00:59:28;;;;;;;26.15;12.93;;;;;;;5.27;45.42;102653.81;7392806;19;20079;-58
2022/12/03 01:01:53;;;;;;;25.42;13.00;;;;;;;5.37;45.05;102648.53;7390838;19;20034;-58
2022/12/03 01:04:19;;;;;;;27.77;13.18;;;;;;;5.38;45.00;102649.34;7392107;19;20355;-59
2022/12/03 01:06:45;;;;;;;24.65;12.23;;;;;;;5.25;45.30;102645.13;7392031;19;20054;-59
2022/12/03 01:09:11;;;;;;;25.25;14.05;;;;;;;5.28;45.12;102652.75;7390156;19;19998;-58
2022/12/03 01:11:36;;;;;;;26.33;13.48;;;;;;;5.42;45.11;102649.63;7390484;19;20500;-58
2022/12/03 01:14:12;;;;;;;28.58;14.98;;;;;;;5.34;45.06;102646.34;7389881;19;20178;-57
2022/12/03 01:16:39;;;;;;;28.23;14.07;;;;;;;5.29;45.01;102646.28;7392027;19;20003;-59
2022/12/03 01:19:09;;;;;;;29.00;14.43;;;;;;;5.36;44.69;102643.38;7391683;19;20016;-59
2022/12/03 01:21:35;;;;;;;28.83;14.30;;;;;;;5.36;44.65;102646.88;7390220;19;20002;-58
2022/12/03 01:24:02;;;;;;;28.40;15.45;;;;;;;5.22;44.66;102648.38;7389997;19;20005;-58
2022/12/03 01:26:28;;;;;;;30.38;15.18;;;;;;;5.14;45.06;102649.69;7389764;19;19995;-58
2022/12/03 01:28:54;;;;;;;27.55;14.65;;;;;;;5.11;45.00;102652.91;7390237;19;20022;-58
2022/12/03 01:34:05;;;;;;;26.52;14.02;;;;;;;5.10;45.06;102653.97;7391709;19;20460;-58
2022/12/03 01:36:33;;;;;;;28.55;14.90;;;;;;;5.17;44.87;102649.16;7390092;19;20032;-59
2022/12/03 01:38:59;;;;;;;30.23;15.10;;;;;;;5.12;44.79;102649.13;7391603;19;20006;-59
2022/12/03 01:41:25;;;;;;;26.20;14.45;;;;;;;5.23;44.75;102647.31;7390360;19;19998;-59
2022/12/03 01:43:52;;;;;;;31.88;16.67;;;;;;;5.17;44.63;102651.88;7390309;19;20002;-58
2022/12/03 01:46:22;;;;;;;31.27;14.93;;;;;;;5.07;45.06;102654.47;7390462;19;20018;-61
2022/12/03 01:48:51;;;;;;;26.50;14.30;;;;;;;5.28;44.78;102657.34;7390036;19;20461;-58
2022/12/03 01:51:17;;;;;;;31.98;15.65;;;;;;;5.30;44.69;102652.50;7389710;19;20111;-59
2022/12/03 01:53:43;;;;;;;32.80;15.77;;;;;;;5.33;44.46;102662.84;7389396;19;20037;-58
2022/12/03 01:56:16;;;;;;;29.63;14.57;;;;;;;5.15;44.70;102655.91;7389796;19;20062;-57
2022/12/03 01:58:42;;;;;;;30.65;15.50;;;;;;;5.09;45.04;102649.63;7391475;19;20006;-59
2022/12/03 02:01:14;;;;;;;31.95;15.80;;;;;;;5.25;44.88;102658.69;7387895;19;20006;-59
2022/12/03 02:03:40;;;;;;;29.42;14.70;;;;;;;5.14;45.08;102655.09;7389413;19;20023;-59
2022/12/03 02:06:15;;;;;;;30.85;15.18;;;;;;;5.18;45.01;102650.78;7390322;19;20022;-61
2022/12/03 02:08:42;;;;;;;28.98;15.23;;;;;;;5.28;44.77;102650.03;7389863;19;20003;-58
2022/12/03 02:11:17;;;;;;;28.33;14.68;;;;;;;5.13;45.13;102652.63;7389636;19;20082;-59
2022/12/03 02:13:44;;;;;;;31.10;14.93;;;;;;;5.08;45.12;102650.69;7389557;19;20019;-59
2022/12/03 02:16:10;;;;;;;31.98;15.85;;;;;;;5.09;44.95;102655.06;7390658;19;19999;-59
2022/12/03 02:18:35;;;;;;;28.77;14.98;;;;;;;5.15;44.87;102658.59;7390030;19;19998;-59
2022/12/03 02:21:11;;;;;;;32.53;15.35;;;;;;;5.17;44.40;102651.88;7389619;19;20026;-59
2022/12/03 02:24:11;;;;;;;31.75;15.43;;;;;;;5.17;44.00;102651.88;7388760;19;20074;-59
2022/12/03 02:26:36;;;;;;;29.25;14.85;;;;;;;5.16;44.16;102644.81;7389464;19;20002;-58
2022/12/03 02:29:02;;;;;;;28.67;15.18;;;;;;;5.16;44.16;102642.09;7388273;19;20482;-58
2022/12/03 02:31:28;;;;;;;33.13;15.63;;;;;;;5.22;43.92;102644.84;7389300;19;20031;-59
2022/12/03 02:33:54;;;;;;;30.45;15.40;;;;;;;5.16;44.07;102647.53;7389045;19;20006;-58
2022/12/03 02:36:20;;;;;;;31.95;15.27;;;;;;;5.02;44.23;102649.84;7387839;19;20359;-59
2022/12/03 02:38:48;;;;;;;27.10;14.18;;;;;;;5.09;44.11;102646.94;7388926;19;20461;-58
2022/12/03 02:42:33;;;;;;;31.17;16.45;;;;;;;5.09;44.14;102652.34;7389204;19;20506;-58
2022/12/03 02:44:23;;;;;;;30.65;15.18;;;;;;;4.99;44.06;102646.84;7384374;19;20014;-59
2022/12/03 02:46:48;;;;;;;30.10;15.45;;;;;;;5.01;44.08;102650.91;7389366;19;19995;-59
2022/12/03 02:49:14;;;;;;;33.15;16.10;;;;;;;5.00;43.86;102645.75;7387245;19;20002;-59
2022/12/03 02:51:40;;;;;;;30.90;16.10;;;;;;;5.02;43.77;102647.16;7388457;19;19999;-58
2022/12/03 02:54:05;;;;;;;33.35;17.02;;;;;;;5.02;43.87;102647.16;7389833;19;19999;-58
2022/12/03 02:56:32;;;;;;;31.20;15.75;;;;;;;4.92;43.86;102646.22;7394183;19;20467;-58
2022/12/03 02:59:01;;;;;;;32.17;17.20;;;;;;;4.95;43.83;102651.94;7397253;19;19998;-59
2022/12/03 03:01:27;;;;;;;32.72;15.25;;;;;;;4.85;43.72;102645.63;7393941;19;20335;-58
2022/12/03 03:04:01;;;;;;;34.78;16.90;;;;;;;4.91;43.54;102647.31;7393817;19;20010;-58
2022/12/03 03:06:27;;;;;;;30.02;15.75;;;;;;;4.83;43.29;102643.19;7394096;19;20001;-58
2022/12/03 03:08:52;;;;;;;34.40;16.80;;;;;;;4.73;43.55;102640.38;7394395;19;19994;-58
2022/12/03 03:11:18;;;;;;;35.00;16.33;;;;;;;4.67;43.62;102650.31;7394391;19;19999;-58
2022/12/03 03:13:44;;;;;;;33.28;15.82;;;;;;;4.54;43.44;102643.47;7395183;19;20453;-58
2022/12/03 03:16:10;;;;;;;33.20;16.77;;;;;;;4.67;43.48;102636.78;7395588;19;20001;-58
2022/12/03 03:18:36;;;;;;;30.40;15.18;;;;;;;4.68;43.37;102638.44;7396160;19;20106;-59
2022/12/03 03:21:03;;;;;;;32.83;16.33;;;;;;;4.77;43.06;102641.50;7394091;19;20002;-59
2022/12/03 03:23:28;;;;;;;32.33;16.48;;;;;;;4.68;43.23;102634.94;7396671;19;20058;-58
2022/12/03 03:26:04;;;;;;;32.78;16.30;;;;;;;4.76;43.12;102643.41;7395129;19;19995;-58
2022/12/03 03:28:33;;;;;;;32.47;16.17;;;;;;;4.82;42.97;102636.97;7394763;19;20006;-58
2022/12/03 03:31:03;;;;;;;29.80;15.30;;;;;;;4.70;43.49;102639.00;7394397;19;20002;-59
2022/12/03 03:33:29;;;;;;;32.60;16.88;;;;;;;4.70;43.29;102630.06;7395043;19;20032;-58
2022/12/03 03:35:55;;;;;;;31.98;16.33;;;;;;;4.79;43.07;102636.66;7394575;19;20324;-57
2022/12/03 03:38:22;;;;;;;36.20;17.75;;;;;;;4.70;43.21;102630.88;7394820;19;20012;-59
2022/12/03 03:40:50;;;;;;;32.50;16.08;;;;;;;4.73;43.19;102632.28;7394812;19;20009;-58
2022/12/03 03:43:16;;;;;;;33.95;16.83;;;;;;;4.74;43.23;102633.88;7394164;19;20463;-58
2022/12/03 03:45:43;;;;;;;33.13;16.05;;;;;;;4.73;43.35;102634.97;7394579;19;19999;-58
2022/12/03 03:48:10;;;;;;;35.22;16.88;;;;;;;4.62;43.19;102626.78;7392741;19;20010;-58
2022/12/03 03:50:36;;;;;;;36.00;17.42;;;;;;;4.72;43.25;102631.47;7394741;19;20025;-59
2022/12/03 03:53:03;;;;;;;33.85;16.48;;;;;;;4.81;42.86;102627.19;7394276;19;20003;-58
2022/12/03 03:55:30;;;;;;;34.13;16.98;;;;;;;4.83;42.94;102630.47;7394299;19;20006;-59
2022/12/03 03:57:55;;;;;;;33.92;16.95;;;;;;;4.75;43.02;102630.13;7395618;19;19999;-59
2022/12/03 04:00:21;;;;;;;34.90;17.05;;;;;;;4.69;42.89;102626.56;7393835;19;20002;-59
2022/12/03 04:02:53;;;;;;;33.83;17.77;;;;;;;4.75;42.89;102633.63;7392805;19;20019;-59
2022/12/03 04:05:21;;;;;;;30.58;15.93;;;;;;;4.74;42.92;102629.31;7393374;19;20018;-58
2022/12/03 04:07:47;;;;;;;37.20;16.77;;;;;;;4.76;42.82;102627.16;7392139;19;20022;-59
2022/12/03 04:12:59;;;;;;;32.47;16.38;;;;;;;4.68;42.82;102633.03;7395029;19;20019;-58
2022/12/03 04:15:25;;;;;;;34.50;17.30;;;;;;;4.59;43.10;102629.16;7393503;19;20003;-58
2022/12/03 04:20:36;;;;;;;31.98;16.90;;;;;;;4.49;43.36;102626.34;7393400;19;20010;-58
2022/12/03 04:23:03;;;;;;;35.35;16.58;;;;;;;4.45;43.50;102626.03;7394279;19;20002;-58
2022/12/03 04:30:57;;;;;;;35.15;17.27;;;;;;;4.46;43.38;102636.59;7392317;19;20034;-58
2022/12/03 04:36:06;;;;;;;37.67;16.90;;;;;;;4.32;43.77;102637.25;7392529;19;20002;-58
2022/12/03 04:38:32;;;;;;;34.55;17.05;;;;;;;4.42;43.50;102638.19;7393260;19;20018;-58
2022/12/03 04:41:02;;;;;;;34.42;17.83;;;;;;;4.48;43.36;102638.25;7390198;19;20007;-58
2022/12/03 04:43:31;;;;;;;38.25;17.95;;;;;;;4.37;43.49;102638.16;7393531;19;20024;-58
2022/12/03 04:45:57;;;;;;;37.55;17.95;;;;;;;4.45;43.22;102626.03;7391868;19;20451;-58
2022/12/03 04:48:23;;;;;;;35.58;17.55;;;;;;;4.48;43.13;102636.34;7391483;19;20013;-59
2022/12/03 04:50:49;;;;;;;35.72;17.02;;;;;;;4.35;43.50;102632.16;7392794;19;20010;-58
2022/12/03 04:53:14;;;;;;;37.83;18.15;;;;;;;4.34;43.53;102638.66;7392745;19;20394;-59
2022/12/03 04:55:40;;;;;;;37.67;18.15;;;;;;;4.45;43.17;102640.41;7390519;19;20007;-59
2022/12/03 04:58:06;;;;;;;32.92;17.23;;;;;;;4.45;43.11;102637.69;7391946;19;19994;-59
2022/12/03 05:00:32;;;;;;;38.05;17.25;;;;;;;4.47;43.37;102642.81;7391786;19;20022;-59
2022/12/03 05:02:57;;;;;;;35.22;17.83;;;;;;;4.43;43.24;102641.72;7391078;19;20013;-59
2022/12/03 05:05:23;;;;;;;35.80;18.02;;;;;;;4.36;43.34;102633.00;7390282;19;20042;-59
2022/12/03 05:07:49;;;;;;;37.22;17.23;;;;;;;4.39;43.43;102641.41;7391410;19;19997;-59
2022/12/03 05:10:14;;;;;;;38.78;18.33;;;;;;;4.40;43.16;102637.63;7392396;19;19998;-58
2022/12/03 05:12:40;;;;;;;37.28;18.05;;;;;;;4.23;43.46;102639.59;7392091;19;20473;-59
2022/12/03 05:15:06;;;;;;;34.75;17.17;;;;;;;4.21;43.57;102644.44;7391116;19;20462;-58
2022/12/03 05:17:32;;;;;;;34.03;17.85;;;;;;;4.33;43.11;102637.00;7391752;19;20585;-58
2022/12/03 05:22:42;;;;;;;39.33;18.85;;;;;;;4.41;42.71;102641.97;7391878;19;20033;-58
2022/12/03 05:25:08;;;;;;;39.15;18.20;;;;;;;4.34;42.75;102640.50;7390247;19;20463;-58
2022/12/03 05:27:34;;;;;;;35.17;17.55;;;;;;;4.30;42.84;102642.91;7391570;19;19998;-58
2022/12/03 05:29:59;;;;;;;35.85;17.88;;;;;;;4.28;42.89;102634.25;7390740;19;20001;-59
2022/12/03 05:32:25;;;;;;;37.42;19.05;;;;;;;4.05;43.19;102633.47;7391146;19;20337;-59
2022/12/03 05:34:51;;;;;;;39.35;18.67;;;;;;;3.99;43.04;102633.66;7390509;19;20005;-59
2022/12/03 05:37:17;;;;;;;37.55;18.85;;;;;;;4.02;42.87;102633.13;7391079;19;19991;-60
2022/12/03 05:39:42;;;;;;;39.03;18.92;;;;;;;3.98;42.82;102627.41;7390551;19;19998;-59
2022/12/03 05:44:53;;;;;;;37.13;17.80;;;;;;;3.83;42.92;102641.53;7390539;19;19994;-58
2022/12/03 05:47:19;;;;;;;38.58;18.48;;;;;;;3.93;42.74;102640.84;7391335;19;19997;-59
2022/12/03 05:49:45;;;;;;;39.58;19.15;;;;;;;3.96;42.44;102640.34;7391276;19;19998;-58
2022/12/03 05:52:17;;;;;;;34.95;17.48;;;;;;;3.69;43.08;102635.69;7388899;19;20034;-59
2022/12/03 05:54:43;;;;;;;39.38;19.25;;;;;;;3.84;42.58;102634.28;7390356;19;20018;-59
2022/12/03 05:57:09;;;;;;;37.13;18.83;;;;;;;3.98;42.41;102638.22;7390160;19;19995;-58
2022/12/03 05:59:34;;;;;;;41.15;18.80;;;;;;;3.96;42.46;102632.25;7391408;19;20519;-58
2022/12/03 06:02:00;;;;;;;36.00;18.75;;;;;;;3.73;42.96;102635.19;7388454;19;20002;-58
2022/12/03 06:04:26;;;;;;;35.00;18.60;;;;;;;3.88;42.52;102632.69;7388831;19;20467;-59
2022/12/03 06:06:51;;;;;;;36.72;18.17;;;;;;;4.00;42.22;102635.25;7390163;19;20010;-58
2022/12/03 06:09:17;;;;;;;42.30;18.23;;;;;;;3.89;42.54;102629.75;7388553;19;20078;-59
2022/12/03 06:11:43;;;;;;;38.58;18.98;;;;;;;3.93;42.13;102631.94;7387656;19;20003;-59
2022/12/03 06:14:09;;;;;;;37.28;18.88;;;;;;;3.99;42.07;102633.66;7389372;19;19995;-60
2022/12/03 06:16:34;;;;;;;38.10;18.60;;;;;;;3.88;42.24;102629.97;7389980;19;20028;-58
2022/12/03 06:19:00;;;;;;;39.63;19.83;;;;;;;3.71;42.59;102627.34;7388206;19;20320;-58
2022/12/03 06:21:26;;;;;;;35.65;19.15;;;;;;;3.70;42.61;102629.22;7388817;19;20082;-59
2022/12/03 06:23:51;;;;;;;40.92;19.27;;;;;;;3.89;42.21;102628.94;7389214;19;19995;-59
2022/12/03 06:26:17;;;;;;;42.55;20.75;;;;;;;3.59;42.69;102627.44;7387982;19;20451;-58
2022/12/03 06:28:45;;;;;;;40.97;20.80;;;;;;;3.71;42.55;102622.75;7388075;19;20007;-58
2022/12/03 06:31:18;;;;;;;40.78;20.38;;;;;;;3.86;42.47;102629.44;7393985;19;20126;-58
2022/12/03 06:33:44;;;;;;;40.67;20.07;;;;;;;3.84;42.34;102626.16;7397626;19;20014;-58
2022/12/03 06:36:09;;;;;;;37.50;18.88;;;;;;;3.80;42.30;102623.13;7395009;19;20492;-59
2022/12/03 06:38:35;;;;;;;42.63;20.60;;;;;;;3.84;42.40;102628.88;7396383;19;19999;-59
2022/12/03 06:41:01;;;;;;;40.55;20.48;;;;;;;3.92;42.37;102622.19;7395673;19;19999;-59
2022/12/03 06:43:26;;;;;;;40.13;21.17;;;;;;;3.74;42.65;102620.59;7397157;19;20009;-59
2022/12/03 06:45:52;;;;;;;39.33;20.58;;;;;;;3.76;42.52;102621.19;7394331;19;20006;-59
2022/12/03 06:48:18;;;;;;;40.85;20.13;;;;;;;3.79;42.39;102626.09;7396060;19;20380;-59
2022/12/03 06:50:43;;;;;;;42.00;21.05;;;;;;;3.67;42.61;102621.63;7395826;19;20304;-59
2022/12/03 06:53:09;;;;;;;42.55;21.63;;;;;;;3.61;42.88;102628.00;7397134;19;20478;-59
2022/12/03 06:55:35;;;;;;;35.97;18.75;;;;;;;3.59;42.79;102621.25;7395569;19;19995;-59
2022/12/03 06:58:00;;;;;;;43.90;20.75;;;;;;;3.74;42.51;102620.59;7396644;19;20467;-59
2022/12/03 07:00:26;;;;;;;44.55;21.33;;;;;;;3.65;42.53;102618.34;7395612;19;20003;-59
2022/12/03 07:02:52;;;;;;;43.80;22.75;;;;;;;3.70;42.52;102614.88;7395334;19;20026;-58
2022/12/03 07:05:18;;;;;;;48.47;23.50;;;;;;;3.47;42.78;102602.41;7395404;19;20002;-59
2022/12/03 07:07:43;;;;;;;45.20;23.00;;;;;;;3.57;42.67;102604.44;7395873;19;20010;-58
2022/12/03 07:10:10;;;;;;;46.00;22.55;;;;;;;3.75;42.29;102616.84;7396558;19;20006;-59
2022/12/03 07:12:36;;;;;;;42.10;20.65;;;;;;;3.55;42.73;102612.78;7396840;19;20016;-58
2022/12/03 07:15:02;;;;;;;48.13;23.60;;;;;;;3.64;42.41;102621.31;7395925;19;20005;-58
2022/12/03 07:17:28;;;;;;;43.65;20.70;;;;;;;3.62;42.57;102624.25;7395972;19;20339;-58
2022/12/03 07:19:54;;;;;;;47.38;23.35;;;;;;;3.70;42.58;102621.13;7396104;19;20405;-58
2022/12/03 07:22:19;;;;;;;44.50;22.58;;;;;;;3.63;42.48;102616.97;7395542;19;20003;-58
2022/12/03 07:24:45;;;;;;;48.25;22.48;;;;;;;3.68;42.54;102620.53;7395538;19;20327;-58
2022/12/03 07:27:11;;;;;;;43.30;21.77;;;;;;;3.58;42.79;102623.09;7395118;19;19998;-58
2022/12/03 07:29:36;;;;;;;48.05;23.52;;;;;;;3.45;43.13;102623.47;7393305;19;20009;-59
2022/12/03 07:32:02;;;;;;;41.45;21.65;;;;;;;3.63;42.73;102617.78;7393216;19;19999;-59
2022/12/03 07:34:28;;;;;;;44.10;20.92;;;;;;;3.58;42.97;102623.09;7396272;19;20463;-58
2022/12/03 07:36:54;;;;;;;43.55;20.50;;;;;;;3.53;42.94;102618.44;7395213;19;20497;-59
2022/12/03 07:39:19;;;;;;;45.03;21.52;;;;;;;3.71;42.97;102628.16;7394549;19;19999;-59
2022/12/03 07:41:45;;;;;;;41.55;20.98;;;;;;;3.85;42.76;102619.69;7391493;19;19999;-58
2022/12/03 07:44:11;;;;;;;42.72;21.63;;;;;;;3.82;42.56;102620.16;7394968;19;19999;-58
2022/12/03 07:46:37;;;;;;;43.00;20.98;;;;;;;3.78;42.67;102616.34;7394370;19;19994;-58
2022/12/03 07:49:03;;;;;;;44.35;21.92;;;;;;;3.65;42.80;102615.66;7392272;19;20407;-58
2022/12/03 07:51:29;;;;;;;43.40;22.20;;;;;;;3.65;42.77;102615.66;7397970;19;20001;-58
2022/12/03 07:53:54;;;;;;;43.78;20.98;;;;;;;3.56;42.95;102603.63;7395093;19;20010;-57
2022/12/03 07:56:20;;;;;;;46.20;23.25;;;;;;;3.66;42.93;102595.66;7394565;19;20006;-57
2022/12/03 07:58:46;;;;;;;45.10;21.75;;;;;;;3.67;42.62;102589.22;7392680;19;20006;-57
2022/12/03 08:01:11;;;;;;;42.45;21.50;;;;;;;3.66;42.56;102597.56;7394119;19;20002;-57
2022/12/03 08:03:37;;;;;;;42.45;21.02;;;;;;;3.74;42.66;102596.28;7393325;19;20014;-57
2022/12/03 08:06:03;;;;;;;44.47;22.23;;;;;;;3.71;42.43;102595.75;7393664;19;20338;-57
2022/12/03 08:08:29;;;;;;;42.70;21.85;;;;;;;3.64;42.54;102599.69;7394113;19;19999;-58
2022/12/03 08:10:55;;;;;;;46.45;22.38;;;;;;;3.67;42.46;102599.19;7391338;19;20312;-58
2022/12/03 08:13:21;;;;;;;42.47;21.08;;;;;;;3.66;42.60;102598.38;7391370;19;20042;-57
2022/12/03 08:15:47;;;;;;;44.97;22.33;;;;;;;3.73;42.33;102595.50;7393263;19;20317;-58
2022/12/03 08:18:18;;;;;;;46.58;21.98;;;;;;;3.81;42.41;102600.44;7394238;19;20351;-59
2022/12/03 08:20:47;;;;;;;45.20;21.65;;;;;;;3.90;42.33;102593.56;7392640;19;20003;-57
2022/12/03 08:23:21;;;;;;;44.90;22.52;;;;;;;3.81;42.45;102599.66;7394173;19;20009;-58
2022/12/03 08:25:48;;;;;;;44.63;22.15;;;;;;;3.79;42.68;102607.19;7392579;19;20018;-58
2022/12/03 08:28:25;;;;;;;46.38;21.77;;;;;;;3.77;42.38;102603.91;7393239;19;19999;-58
2022/12/03 08:31:18;;;;;;;46.40;21.90;;;;;;;3.63;42.38;102604.25;7392165;19;20006;-58
2022/12/03 08:33:46;;;;;;;47.55;22.25;;;;;;;3.55;42.94;102607.41;7391769;19;20339;-58
2022/12/03 08:36:12;;;;;;;49.70;22.58;;;;;;;3.71;42.67;102598.44;7390985;19;20005;-58
2022/12/03 08:38:38;;;;;;;44.25;22.00;;;;;;;3.82;42.20;102602.09;7393492;19;19998;-58
2022/12/03 08:41:13;;;;;;;49.17;23.27;;;;;;;3.47;42.99;102597.84;7392418;19;20010;-59
2022/12/03 08:43:41;;;;;;;43.67;21.95;;;;;;;3.68;42.76;102596.22;7393985;19;20042;-59
2022/12/03 08:46:15;;;;;;;41.25;22.25;;;;;;;3.71;42.44;102600.31;7391620;19;20091;-58
2022/12/03 08:48:42;;;;;;;45.00;21.95;;;;;;;3.68;42.32;102598.94;7391281;19;20499;-58
2022/12/03 08:51:17;;;;;;;45.13;21.90;;;;;;;3.64;42.44;102597.00;7391802;19;20078;-59
2022/12/03 08:53:48;;;;;;;45.30;23.17;;;;;;;3.55;42.67;102596.59;7391507;19;20005;-58
2022/12/03 08:56:23;;;;;;;45.88;22.42;;;;;;;3.51;42.63;102595.47;7391956;19;20016;-58
2022/12/03 08:59:14;;;;;;;47.15;22.70;;;;;;;3.55;42.84;102596.59;7392591;19;20021;-58
2022/12/03 09:01:44;;;;;;;48.42;22.55;;;;;;;3.59;42.67;102597.75;7391128;19;20007;-59
2022/12/03 09:04:35;;;;;;;41.92;21.63;;;;;;;3.83;42.28;102598.31;7390858;19;20003;-59
2022/12/03 09:07:01;;;;;;;46.72;23.17;;;;;;;3.90;41.86;102595.41;7391985;19;20079;-59
2022/12/03 09:09:26;;;;;;;44.55;22.33;;;;;;;3.69;42.59;102592.47;7390750;19;19999;-59
2022/12/03 09:11:53;;;;;;;47.10;22.42;;;;;;;3.63;42.50;102582.66;7390352;19;20015;-58
2022/12/03 09:14:21;;;;;;;45.88;22.60;;;;;;;3.69;42.51;102589.78;7392143;19;19998;-57
2022/12/03 09:16:54;;;;;;;42.13;21.02;;;;;;;3.75;42.26;102590.66;7391511;19;20062;-57
2022/12/03 09:19:25;;;;;;;42.65;21.60;;;;;;;3.71;42.32;102589.53;7392169;19;19999;-57
2022/12/03 09:21:51;;;;;;;43.00;22.60;;;;;;;3.62;42.55;102588.31;7389652;19;20115;-57
2022/12/03 09:24:17;;;;;;;45.28;22.67;;;;;;;3.69;42.41;102594.38;7392013;19;19991;-59
2022/12/03 09:26:43;;;;;;;43.60;21.75;;;;;;;3.63;42.44;102587.25;7391465;19;20293;-58
2022/12/03 09:29:09;;;;;;;44.72;21.80;;;;;;;3.61;42.54;102589.41;7390005;19;20002;-57
2022/12/03 09:31:34;;;;;;;43.78;22.15;;;;;;;3.44;42.76;102584.03;7390820;19;20015;-58
2022/12/03 09:34:01;;;;;;;44.33;23.27;;;;;;;3.51;42.76;102584.69;7391402;19;20009;-58
2022/12/03 09:36:27;;;;;;;44.88;22.23;;;;;;;3.68;42.47;102581.91;7390526;19;20012;-58
2022/12/03 09:38:53;;;;;;;44.78;22.42;;;;;;;3.67;42.48;102588.38;7389663;19;19991;-58
2022/12/03 09:41:19;;;;;;;44.85;21.80;;;;;;;3.45;42.67;102582.97;7390038;19;20465;-59
2022/12/03 09:43:45;;;;;;;43.90;21.23;;;;;;;3.48;42.76;102583.28;7390071;19;20003;-58
2022/12/03 09:46:10;;;;;;;45.00;21.15;;;;;;;3.37;42.88;102586.88;7388405;19;20459;-58
2022/12/03 09:48:36;;;;;;;47.20;21.45;;;;;;;3.42;42.53;102576.16;7390498;19;20002;-58
2022/12/03 09:51:03;;;;;;;44.45;22.02;;;;;;;3.45;42.85;102581.09;7389361;19;19995;-58
2022/12/03 09:53:29;;;;;;;42.92;22.30;;;;;;;3.46;42.59;102571.09;7389590;19;19999;-58
2022/12/03 09:55:58;;;;;;;38.25;20.35;;;;;;;3.43;42.71;102577.81;7389590;19;20026;-58
2022/12/03 09:58:25;;;;;;;42.85;21.02;;;;;;;3.25;43.23;102576.19;7389524;19;20036;-58
2022/12/03 10:00:52;;;;;;;39.55;21.02;;;;;;;3.49;42.79;102571.41;7390461;19;19995;-58
2022/12/03 10:03:20;;;;;;;39.80;20.60;;;;;;;3.58;42.48;102563.69;7389104;19;20018;-57
2022/12/03 10:05:46;;;;;;;39.30;20.75;;;;;;;3.50;42.88;102566.81;7388938;19;19999;-59
2022/12/03 10:08:19;;;;;;;41.13;21.25;;;;;;;3.38;43.08;102560.69;7389869;19;20026;-59
2022/12/03 10:10:46;;;;;;;43.78;21.25;;;;;;;3.54;42.72;102562.56;7386916;19;20002;-60
2022/12/03 10:13:19;;;;;;;43.25;21.88;;;;;;;3.48;42.90;102561.69;7390802;19;19998;-60
2022/12/03 10:15:45;;;;;;;43.00;20.13;;;;;;;3.52;42.66;102559.31;7388708;19;20054;-62
2022/12/03 10:18:24;;;;;;;42.45;20.63;;;;;;;3.52;42.92;102560.13;7389723;19;20313;-62
2022/12/03 10:20:51;;;;;;;42.63;21.35;;;;;;;3.55;42.70;102566.88;7389161;19;20078;-60
2022/12/03 10:23:27;;;;;;;42.47;21.60;;;;;;;3.63;42.82;102561.06;7389939;19;20023;-59
2022/12/03 10:25:59;;;;;;;44.08;20.45;;;;;;;3.66;42.61;102559.75;7388932;19;19995;-61
2022/12/03 10:28:30;;;;;;;43.67;20.85;;;;;;;3.67;42.41;102551.41;7389287;19;20027;-60
2022/12/03 10:30:57;;;;;;;44.00;20.88;;;;;;;3.78;42.48;102554.22;7389788;19;20459;-60
2022/12/03 10:33:29;;;;;;;40.95;20.92;;;;;;;3.61;42.58;102560.50;7390344;19;20018;-61
2022/12/03 10:35:54;;;;;;;40.33;20.90;;;;;;;3.74;42.56;102547.69;7389547;19;20027;-62
2022/12/03 10:38:22;;;;;;;40.60;20.83;;;;;;;3.74;42.37;102545.81;7387667;19;20003;-61
2022/12/03 10:40:48;;;;;;;43.53;20.35;;;;;;;3.85;42.22;102544.03;7388682;19;20366;-61
2022/12/03 10:43:24;;;;;;;41.50;20.75;;;;;;;3.83;42.27;102538.06;7390073;19;19999;-62
2022/12/03 10:46:10;;;;;;;41.13;20.13;;;;;;;3.98;41.91;102534.72;7388628;19;20018;-60
2022/12/03 10:48:35;;;;;;;40.88;21.15;;;;;;;3.86;42.24;102543.78;7388117;19;20376;-60
2022/12/03 10:51:04;;;;;;;42.92;20.38;;;;;;;3.86;42.33;102532.97;7387999;19;20007;-61
2022/12/03 10:53:32;;;;;;;42.97;20.52;;;;;;;3.84;42.38;102528.91;7389402;19;20002;-61
2022/12/03 10:56:00;;;;;;;40.95;19.45;;;;;;;3.85;42.22;102525.13;7388089;19;20007;-59
2022/12/03 10:58:29;;;;;;;42.65;20.42;;;;;;;3.98;42.21;102527.44;7389299;19;20099;-60
2022/12/03 11:00:56;;;;;;;37.75;19.23;;;;;;;3.91;42.11;102526.81;7388086;19;20006;-60
2022/12/03 11:03:28;;;;;;;43.35;20.27;;;;;;;4.03;42.09;102523.97;7388248;19;20014;-61
2022/12/03 11:05:55;;;;;;;41.08;20.33;;;;;;;4.18;41.74;102526.03;7388563;19;20001;-61
2022/12/03 11:08:24;;;;;;;42.47;19.73;;;;;;;4.19;41.94;102520.34;7388693;19;20065;-60
2022/12/03 11:11:14;;;;;;;40.97;20.15;;;;;;;4.31;41.59;102519.41;7385795;19;20045;-61
2022/12/03 11:13:40;;;;;;;41.20;20.65;;;;;;;4.13;42.07;102517.88;7385887;19;20002;-62
2022/12/03 11:16:09;;;;;;;41.55;20.08;;;;;;;4.14;42.15;102509.50;7388710;19;20518;-62
2022/12/03 11:18:35;;;;;;;42.33;20.75;;;;;;;4.32;41.67;102502.09;7395037;19;19994;-61
2022/12/03 11:21:12;;;;;;;39.65;19.15;;;;;;;4.21;41.99;102512.81;7394024;19;20001;-61
2022/12/03 11:23:43;;;;;;;40.53;20.70;;;;;;;4.20;41.97;102504.94;7396645;19;20070;-61
2022/12/03 11:26:36;;;;;;;43.08;20.00;;;;;;;4.23;41.57;102507.16;7393771;19;20339;-61
2022/12/03 11:29:12;;;;;;;36.65;18.90;;;;;;;4.30;41.86;102504.22;7394294;19;20006;-61
2022/12/03 11:31:42;;;;;;;38.17;18.98;;;;;;;4.15;42.04;102496.78;7394319;19;20010;-62
2022/12/03 11:34:17;;;;;;;39.55;20.05;;;;;;;4.09;41.92;102494.03;7395472;19;20054;-61
2022/12/03 11:37:10;;;;;;;40.97;20.38;;;;;;;4.13;41.88;102488.94;7394242;19;20486;-64
2022/12/03 11:39:48;;;;;;;41.28;19.73;;;;;;;4.02;42.05;102488.03;7394039;19;19987;-60
2022/12/03 11:42:24;;;;;;;42.10;19.48;;;;;;;4.08;42.25;102481.59;7395777;19;19990;-60